sensor_id;sensor_type;location;lat;lon;timestamp;pressure;altitude;pressure_sealevel;temperature;humidity
69624;BME280;56843;52.020;5.670;2023-04-06T00:00:12;101651.50;;;11.39;47.64
69624;BME280;56843;52.020;5.670;2023-04-06T00:01:43;101646.97;;;11.39;47.73
69624;BME280;56843;52.020;5.670;2023-04-06T00:03:13;101641.63;;;11.39;47.89
69624;BME280;56843;52.020;5.670;2023-04-06T00:04:44;101647.75;;;11.40;48.02
69624;BME280;56843;52.020;5.670;2023-04-06T00:06:14;101637.34;;;11.38;47.83
69624;BME280;56843;52.020;5.670;2023-04-06T00:07:44;101645.09;;;11.40;47.78
69624;BME280;56843;52.020;5.670;2023-04-06T00:09:15;101640.03;;;11.38;47.85
69624;BME280;56843;52.020;5.670;2023-04-06T00:10:45;101643.50;;;11.39;47.88
69624;BME280;56843;52.020;5.670;2023-04-06T00:12:16;101643.50;;;11.39;47.96
69624;BME280;56843;52.020;5.670;2023-04-06T00:13:46;101633.09;;;11.37;48.00
69624;BME280;56843;52.020;5.670;2023-04-06T00:15:17;101633.09;;;11.37;48.00
69624;BME280;56843;52.020;5.670;2023-04-06T00:16:47;101637.66;;;11.37;47.87
69624;BME280;56843;52.020;5.670;2023-04-06T00:18:18;101637.66;;;11.37;48.12
69624;BME280;56843;52.020;5.670;2023-04-06T00:19:49;101645.69;;;11.37;47.83
69624;BME280;56843;52.020;5.670;2023-04-06T00:21:20;101636.88;;;11.36;47.99
69624;BME280;56843;52.020;5.670;2023-04-06T00:22:50;101632.63;;;11.35;48.41
69624;BME280;56843;52.020;5.670;2023-04-06T00:24:21;101634.50;;;11.35;48.25
69624;BME280;56843;52.020;5.670;2023-04-06T00:25:51;101629.97;;;11.35;48.43
69624;BME280;56843;52.020;5.670;2023-04-06T00:27:22;101629.16;;;11.35;48.08
69624;BME280;56843;52.020;5.670;2023-04-06T00:28:52;101624.91;;;11.34;48.42
69624;BME280;56843;52.020;5.670;2023-04-06T00:30:23;101621.94;;;11.35;48.44
69624;BME280;56843;52.020;5.670;2023-04-06T00:31:53;101624.59;;;11.35;48.41
69624;BME280;56843;52.020;5.670;2023-04-06T00:33:23;101622.69;;;11.36;48.36
69624;BME280;56843;52.020;5.670;2023-04-06T00:34:54;101618.47;;;11.35;48.44
69624;BME280;56843;52.020;5.670;2023-04-06T00:36:25;101626.50;;;11.35;48.72
69624;BME280;56843;52.020;5.670;2023-04-06T00:37:55;101610.44;;;11.35;48.17
69624;BME280;56843;52.020;5.670;2023-04-06T00:39:26;101611.22;;;11.35;48.26
69624;BME280;56843;52.020;5.670;2023-04-06T00:40:57;101611.22;;;11.35;48.20
69624;BME280;56843;52.020;5.670;2023-04-06T00:42:27;101613.13;;;11.35;48.42
69624;BME280;56843;52.020;5.670;2023-04-06T00:43:58;101607.28;;;11.33;48.70
69624;BME280;56843;52.020;5.670;2023-04-06T00:45:28;101603.50;;;11.34;48.37
69624;BME280;56843;52.020;5.670;2023-04-06T00:46:59;101606.16;;;11.34;48.18
69624;BME280;56843;52.020;5.670;2023-04-06T00:48:29;101600.06;;;11.33;48.53
69624;BME280;56843;52.020;5.670;2023-04-06T00:50:01;101603.34;;;11.30;48.64
69624;BME280;56843;52.020;5.670;2023-04-06T00:51:32;101596.41;;;11.29;48.73
69624;BME280;56843;52.020;5.670;2023-04-06T00:53:02;101588.53;;;11.24;48.46
69624;BME280;56843;52.020;5.670;2023-04-06T00:54:33;101588.69;;;11.28;48.49
69624;BME280;56843;52.020;5.670;2023-04-06T00:56:04;101597.50;;;11.28;48.88
69624;BME280;56843;52.020;5.670;2023-04-06T00:57:44;101594.34;;;11.26;48.80
69624;BME280;56843;52.020;5.670;2023-04-06T00:59:15;101588.22;;;11.26;48.66
69624;BME280;56843;52.020;5.670;2023-04-06T01:02:26;101592.44;;;11.27;48.70
69624;BME280;56843;52.020;5.670;2023-04-06T01:03:57;101596.72;;;11.28;48.96
69624;BME280;56843;52.020;5.670;2023-04-06T01:05:28;101589.78;;;11.27;48.74
69624;BME280;56843;52.020;5.670;2023-04-06T01:07:02;101584.44;;;11.27;48.75
69624;BME280;56843;52.020;5.670;2023-04-06T01:08:39;101581.75;;;11.27;48.80
69624;BME280;56843;52.020;5.670;2023-04-06T01:10:24;101581.75;;;11.27;49.05
69624;BME280;56843;52.020;5.670;2023-04-06T01:11:57;101575.94;;;11.25;48.83
69624;BME280;56843;52.020;5.670;2023-04-06T01:13:32;101578.59;;;11.25;49.03
69624;BME280;56843;52.020;5.670;2023-04-06T01:15:06;101578.59;;;11.25;48.99
69624;BME280;56843;52.020;5.670;2023-04-06T01:16:40;101568.22;;;11.23;48.97
69624;BME280;56843;52.020;5.670;2023-04-06T01:18:14;101564.59;;;11.19;48.91
69624;BME280;56843;52.020;5.670;2023-04-06T01:19:52;101566.16;;;11.20;49.06
69624;BME280;56843;52.020;5.670;2023-04-06T01:21:30;101569.63;;;11.21;49.17
69624;BME280;56843;52.020;5.670;2023-04-06T01:23:19;101572.63;;;11.19;49.31
69624;BME280;56843;52.020;5.670;2023-04-06T01:24:51;101570.25;;;11.18;49.22
69624;BME280;56843;52.020;5.670;2023-04-06T01:26:28;101562.25;;;11.18;49.47
69624;BME280;56843;52.020;5.670;2023-04-06T01:28:01;101563.00;;;11.18;49.25
69624;BME280;56843;52.020;5.670;2023-04-06T01:29:51;101565.19;;;11.16;49.31
69624;BME280;56843;52.020;5.670;2023-04-06T01:31:44;101567.06;;;11.16;49.66
69624;BME280;56843;52.020;5.670;2023-04-06T01:33:15;101564.72;;;11.14;49.31
69624;BME280;56843;52.020;5.670;2023-04-06T01:35:03;101555.91;;;11.14;49.38
69624;BME280;56843;52.020;5.670;2023-04-06T01:36:36;101557.50;;;11.15;49.78
69624;BME280;56843;52.020;5.670;2023-04-06T01:38:21;101553.22;;;11.14;49.79
69624;BME280;56843;52.020;5.670;2023-04-06T01:39:53;101554.03;;;11.14;49.58
69624;BME280;56843;52.020;5.670;2023-04-06T01:41:33;101550.88;;;11.12;49.72
69624;BME280;56843;52.020;5.670;2023-04-06T01:43:03;101555.91;;;11.14;49.88
69624;BME280;56843;52.020;5.670;2023-04-06T01:45:06;101547.41;;;11.12;49.92
69624;BME280;56843;52.020;5.670;2023-04-06T01:46:37;101550.06;;;11.12;50.00
69624;BME280;56843;52.020;5.670;2023-04-06T01:48:09;101540.19;;;11.12;49.95
69624;BME280;56843;52.020;5.670;2023-04-06T01:49:40;101534.34;;;11.10;49.69
69624;BME280;56843;52.020;5.670;2023-04-06T01:51:11;101540.97;;;11.13;49.92
69624;BME280;56843;52.020;5.670;2023-04-06T01:52:49;101538.31;;;11.13;50.14
69624;BME280;56843;52.020;5.670;2023-04-06T01:54:20;101534.50;;;11.14;50.01
69624;BME280;56843;52.020;5.670;2023-04-06T01:56:09;101538.31;;;11.13;50.13
69624;BME280;56843;52.020;5.670;2023-04-06T01:57:44;101534.03;;;11.12;49.90
69624;BME280;56843;52.020;5.670;2023-04-06T01:59:21;101531.38;;;11.12;50.17
69624;BME280;56843;52.020;5.670;2023-04-06T02:00:52;101535.63;;;11.13;49.83
69624;BME280;56843;52.020;5.670;2023-04-06T02:02:23;101522.38;;;11.07;50.00
69624;BME280;56843;52.020;5.670;2023-04-06T02:04:02;101537.81;;;11.11;49.88
69624;BME280;56843;52.020;5.670;2023-04-06T02:05:34;101531.38;;;11.12;49.90
69624;BME280;56843;52.020;5.670;2023-04-06T02:07:17;101523.97;;;11.08;49.95
69624;BME280;56843;52.020;5.670;2023-04-06T02:08:47;101525.84;;;11.08;50.38
69624;BME280;56843;52.020;5.670;2023-04-06T02:10:18;101533.56;;;11.09;50.07
69624;BME280;56843;52.020;5.670;2023-04-06T02:11:48;101529.31;;;11.08;50.01
69624;BME280;56843;52.020;5.670;2023-04-06T02:13:19;101517.38;;;11.06;49.82
69624;BME280;56843;52.020;5.670;2023-04-06T02:14:53;101521.31;;;11.08;50.14
69624;BME280;56843;52.020;5.670;2023-04-06T02:16:24;101528.53;;;11.08;50.15
69624;BME280;56843;52.020;5.670;2023-04-06T02:17:54;101515.47;;;11.06;50.27
69624;BME280;56843;52.020;5.670;2023-04-06T02:19:25;101519.72;;;11.07;50.01
69624;BME280;56843;52.020;5.670;2023-04-06T02:20:56;101523.19;;;11.08;50.02
69624;BME280;56843;52.020;5.670;2023-04-06T02:22:26;101516.25;;;11.07;49.54
69624;BME280;56843;52.020;5.670;2023-04-06T02:23:57;101512.50;;;11.08;50.15
69624;BME280;56843;52.020;5.670;2023-04-06T02:25:27;101512.16;;;11.09;50.36
69624;BME280;56843;52.020;5.670;2023-04-06T02:26:58;101515.16;;;11.08;50.13
69624;BME280;56843;52.020;5.670;2023-04-06T02:28:28;101509.03;;;11.07;50.35
69624;BME280;56843;52.020;5.670;2023-04-06T02:29:59;101506.34;;;11.07;50.04
69624;BME280;56843;52.020;5.670;2023-04-06T02:31:29;101507.16;;;11.08;50.42
69624;BME280;56843;52.020;5.670;2023-04-06T02:33:00;101509.03;;;11.07;50.23
69624;BME280;56843;52.020;5.670;2023-04-06T02:34:32;101495.50;;;11.04;50.13
69624;BME280;56843;52.020;5.670;2023-04-06T02:36:03;101499.13;;;11.08;50.23
69624;BME280;56843;52.020;5.670;2023-04-06T02:37:34;101499.91;;;11.08;50.39
69624;BME280;56843;52.020;5.670;2023-04-06T02:39:04;101497.06;;;11.05;50.42
69624;BME280;56843;52.020;5.670;2023-04-06T02:40:35;101496.78;;;11.06;50.24
69624;BME280;56843;52.020;5.670;2023-04-06T02:42:16;101495.19;;;11.05;50.55
69624;BME280;56843;52.020;5.670;2023-04-06T02:43:49;101488.75;;;11.06;50.26
69624;BME280;56843;52.020;5.670;2023-04-06T02:45:32;101495.19;;;11.05;50.63
69624;BME280;56843;52.020;5.670;2023-04-06T02:47:05;101491.72;;;11.05;50.44
69624;BME280;56843;52.020;5.670;2023-04-06T02:48:35;101495.66;;;11.07;50.37
69624;BME280;56843;52.020;5.670;2023-04-06T02:50:07;101499.44;;;11.06;50.50
69624;BME280;56843;52.020;5.670;2023-04-06T02:51:42;101488.75;;;11.06;50.70
69624;BME280;56843;52.020;5.670;2023-04-06T02:53:22;101482.63;;;11.06;50.44
69624;BME280;56843;52.020;5.670;2023-04-06T02:54:53;101477.56;;;11.04;50.41
69624;BME280;56843;52.020;5.670;2023-04-06T02:56:29;101485.28;;;11.06;50.58
69624;BME280;56843;52.020;5.670;2023-04-06T02:58:00;101482.28;;;11.07;50.56
69624;BME280;56843;52.020;5.670;2023-04-06T02:59:36;101476.16;;;11.07;50.65
69624;BME280;56843;52.020;5.670;2023-04-06T03:01:14;101478.81;;;11.07;50.78
69624;BME280;56843;52.020;5.670;2023-04-06T03:02:46;101470.03;;;11.06;50.62
69624;BME280;56843;52.020;5.670;2023-04-06T03:04:19;101480.72;;;11.06;50.78
69624;BME280;56843;52.020;5.670;2023-04-06T03:05:50;101468.13;;;11.07;51.26
69624;BME280;56843;52.020;5.670;2023-04-06T03:07:28;101478.81;;;11.07;50.72
69624;BME280;56843;52.020;5.670;2023-04-06T03:08:59;101479.63;;;11.07;50.80
69624;BME280;56843;52.020;5.670;2023-04-06T03:10:29;101474.28;;;11.07;50.75
69624;BME280;56843;52.020;5.670;2023-04-06T03:12:00;101470.81;;;11.07;51.14
69624;BME280;56843;52.020;5.670;2023-04-06T03:13:35;101474.28;;;11.07;50.77
69624;BME280;56843;52.020;5.670;2023-04-06T03:15:06;101475.69;;;11.05;50.90
69624;BME280;56843;52.020;5.670;2023-04-06T03:16:37;101479.63;;;11.07;50.82
69624;BME280;56843;52.020;5.670;2023-04-06T03:18:08;101476.16;;;11.07;50.74
69624;BME280;56843;52.020;5.670;2023-04-06T03:19:45;101481.50;;;11.07;50.89
69624;BME280;56843;52.020;5.670;2023-04-06T03:21:16;101471.28;;;11.09;50.92
69624;BME280;56843;52.020;5.670;2023-04-06T03:22:51;101465.94;;;11.09;51.11
69624;BME280;56843;52.020;5.670;2023-04-06T03:24:26;101466.25;;;11.07;50.87
69624;BME280;56843;52.020;5.670;2023-04-06T03:25:57;101465.66;;;11.11;50.97
69624;BME280;56843;52.020;5.670;2023-04-06T03:27:27;101462.66;;;11.12;50.96
69624;BME280;56843;52.020;5.670;2023-04-06T03:28:59;101461.56;;;11.13;51.04
69624;BME280;56843;52.020;5.670;2023-04-06T03:30:34;101451.50;;;11.10;50.97
69624;BME280;56843;52.020;5.670;2023-04-06T03:32:04;101461.25;;;11.15;51.20
69624;BME280;56843;52.020;5.670;2023-04-06T03:33:42;101462.34;;;11.14;51.07
69624;BME280;56843;52.020;5.670;2023-04-06T03:35:17;101466.28;;;11.16;51.13
69624;BME280;56843;52.020;5.670;2023-04-06T03:36:47;101467.06;;;11.17;51.18
69624;BME280;56843;52.020;5.670;2023-04-06T03:38:18;101456.38;;;11.17;51.07
69624;BME280;56843;52.020;5.670;2023-04-06T03:39:48;101466.00;;;11.18;51.29
69624;BME280;56843;52.020;5.670;2023-04-06T03:41:24;101454.78;;;11.16;51.18
69624;BME280;56843;52.020;5.670;2023-04-06T03:43:26;101447.56;;;11.16;51.16
69624;BME280;56843;52.020;5.670;2023-04-06T03:44:57;101456.06;;;11.18;51.28
69624;BME280;56843;52.020;5.670;2023-04-06T03:46:28;101444.59;;;11.18;51.12
69624;BME280;56843;52.020;5.670;2023-04-06T03:48:01;101454.19;;;11.19;51.13
69624;BME280;56843;52.020;5.670;2023-04-06T03:49:32;101445.09;;;11.20;51.07
69624;BME280;56843;52.020;5.670;2023-04-06T03:51:04;101442.88;;;11.22;51.00
69624;BME280;56843;52.020;5.670;2023-04-06T03:52:35;101444.44;;;11.23;50.93
69624;BME280;56843;52.020;5.670;2023-04-06T03:54:06;101437.06;;;11.20;51.11
69624;BME280;56843;52.020;5.670;2023-04-06T03:55:36;101436.41;;;11.23;50.94
69624;BME280;56843;52.020;5.670;2023-04-06T03:57:07;101431.72;;;11.20;51.15
69624;BME280;56843;52.020;5.670;2023-04-06T03:58:37;101430.00;;;11.24;51.15
69624;BME280;56843;52.020;5.670;2023-04-06T04:00:08;101441.16;;;11.26;51.18
69624;BME280;56843;52.020;5.670;2023-04-06T04:01:45;101433.44;;;11.24;51.08
69624;BME280;56843;52.020;5.670;2023-04-06T04:03:15;101433.13;;;11.26;50.87
69624;BME280;56843;52.020;5.670;2023-04-06T04:04:46;101440.03;;;11.27;50.80
69624;BME280;56843;52.020;5.670;2023-04-06T04:06:16;101438.16;;;11.27;50.99
69624;BME280;56843;52.020;5.670;2023-04-06T04:07:47;101434.69;;;11.27;51.13
69624;BME280;56843;52.020;5.670;2023-04-06T04:09:18;101440.03;;;11.27;50.96
69624;BME280;56843;52.020;5.670;2023-04-06T04:10:48;101448.84;;;11.27;51.04
69624;BME280;56843;52.020;5.670;2023-04-06T04:12:18;101448.84;;;11.27;51.05
69624;BME280;56843;52.020;5.670;2023-04-06T04:13:49;101448.06;;;11.27;51.04
69624;BME280;56843;52.020;5.670;2023-04-06T04:15:20;101451.53;;;11.27;50.98
69624;BME280;56843;52.020;5.670;2023-04-06T04:16:51;101449.66;;;11.28;51.05
69624;BME280;56843;52.020;5.670;2023-04-06T04:18:22;101447.28;;;11.26;51.04
69624;BME280;56843;52.020;5.670;2023-04-06T04:19:52;101445.38;;;11.27;51.17
69624;BME280;56843;52.020;5.670;2023-04-06T04:21:23;101446.97;;;11.28;50.98
69624;BME280;56843;52.020;5.670;2023-04-06T04:22:53;101440.03;;;11.27;51.23
69624;BME280;56843;52.020;5.670;2023-04-06T04:24:24;101444.31;;;11.28;50.98
69624;BME280;56843;52.020;5.670;2023-04-06T04:25:55;101449.34;;;11.29;51.42
69624;BME280;56843;52.020;5.670;2023-04-06T04:27:25;101453.91;;;11.29;51.03
69624;BME280;56843;52.020;5.670;2023-04-06T04:28:56;101452.00;;;11.29;50.93
69624;BME280;56843;52.020;5.670;2023-04-06T04:30:27;101449.66;;;11.28;51.13
69624;BME280;56843;52.020;5.670;2023-04-06T04:31:57;101456.59;;;11.29;51.37
69624;BME280;56843;52.020;5.670;2023-04-06T04:33:28;101451.25;;;11.29;51.05
69624;BME280;56843;52.020;5.670;2023-04-06T04:35:00;101449.66;;;11.28;51.58
69624;BME280;56843;52.020;5.670;2023-04-06T04:36:39;101454.19;;;11.27;51.24
69624;BME280;56843;52.020;5.670;2023-04-06T04:38:14;101441.94;;;11.26;51.26
69624;BME280;56843;52.020;5.670;2023-04-06T04:39:47;101438.97;;;11.28;51.23
69624;BME280;56843;52.020;5.670;2023-04-06T04:41:18;101442.25;;;11.25;51.24
69624;BME280;56843;52.020;5.670;2023-04-06T04:42:49;101448.84;;;11.27;51.39
69624;BME280;56843;52.020;5.670;2023-04-06T04:44:28;101438.31;;;11.22;51.40
69624;BME280;56843;52.020;5.670;2023-04-06T04:45:59;101440.84;;;11.27;51.13
69624;BME280;56843;52.020;5.670;2023-04-06T04:47:41;101448.38;;;11.25;50.91
69624;BME280;56843;52.020;5.670;2023-04-06T04:49:12;101446.81;;;11.24;51.45
69624;BME280;56843;52.020;5.670;2023-04-06T04:50:44;101441.94;;;11.26;51.20
69624;BME280;56843;52.020;5.670;2023-04-06T04:52:14;101436.28;;;11.28;50.99
69624;BME280;56843;52.020;5.670;2023-04-06T04:54:08;101444.63;;;11.26;51.18
69624;BME280;56843;52.020;5.670;2023-04-06T04:55:38;101438.16;;;11.27;51.23
69624;BME280;56843;52.020;5.670;2023-04-06T04:57:09;101439.28;;;11.26;50.87
69624;BME280;56843;52.020;5.670;2023-04-06T04:58:45;101438.16;;;11.27;51.03
69624;BME280;56843;52.020;5.670;2023-04-06T05:00:16;101438.97;;;11.28;51.06
69624;BME280;56843;52.020;5.670;2023-04-06T05:01:48;101441.63;;;11.28;51.26
69624;BME280;56843;52.020;5.670;2023-04-06T05:03:23;101440.53;;;11.29;51.01
69624;BME280;56843;52.020;5.670;2023-04-06T05:05:08;101425.13;;;11.26;50.89
69624;BME280;56843;52.020;5.670;2023-04-06T05:06:38;101442.25;;;11.25;51.08
69624;BME280;56843;52.020;5.670;2023-04-06T05:08:09;101432.03;;;11.27;51.24
69624;BME280;56843;52.020;5.670;2023-04-06T05:09:51;101440.34;;;11.25;51.35
69624;BME280;56843;52.020;5.670;2023-04-06T05:11:22;101443.22;;;11.29;51.21
69624;BME280;56843;52.020;5.670;2023-04-06T05:12:59;101441.63;;;11.28;51.13
69624;BME280;56843;52.020;5.670;2023-04-06T05:14:31;101439.75;;;11.28;50.97
69624;BME280;56843;52.020;5.670;2023-04-06T05:16:02;101437.88;;;11.29;51.41
69624;BME280;56843;52.020;5.670;2023-04-06T05:17:36;101437.06;;;11.28;51.25
69624;BME280;56843;52.020;5.670;2023-04-06T05:19:07;101437.88;;;11.29;51.02
69624;BME280;56843;52.020;5.670;2023-04-06T05:20:44;101437.88;;;11.29;51.23
69624;BME280;56843;52.020;5.670;2023-04-06T05:22:15;101440.22;;;11.30;51.20
69624;BME280;56843;52.020;5.670;2023-04-06T05:23:50;101432.19;;;11.30;50.93
69624;BME280;56843;52.020;5.670;2023-04-06T05:25:21;101433.00;;;11.31;51.02
69624;BME280;56843;52.020;5.670;2023-04-06T05:26:54;101435.97;;;11.29;50.77
69624;BME280;56843;52.020;5.670;2023-04-06T05:28:27;101428.59;;;11.26;51.14
69624;BME280;56843;52.020;5.670;2023-04-06T05:29:58;101435.66;;;11.31;51.02
69624;BME280;56843;52.020;5.670;2023-04-06T05:31:30;101429.53;;;11.30;51.03
69624;BME280;56843;52.020;5.670;2023-04-06T05:33:02;101433.00;;;11.31;51.11
69624;BME280;56843;52.020;5.670;2023-04-06T05:34:40;101429.53;;;11.30;51.22
69624;BME280;56843;52.020;5.670;2023-04-06T05:36:11;101419.16;;;11.29;50.94
69624;BME280;56843;52.020;5.670;2023-04-06T05:37:45;101428.13;;;11.33;51.02
69624;BME280;56843;52.020;5.670;2023-04-06T05:39:16;101421.97;;;11.32;51.17
69624;BME280;56843;52.020;5.670;2023-04-06T05:40:55;101424.34;;;11.34;50.74
69624;BME280;56843;52.020;5.670;2023-04-06T05:42:39;101424.81;;;11.36;50.85
69624;BME280;56843;52.020;5.670;2023-04-06T05:44:10;101413.34;;;11.35;50.79
69624;BME280;56843;52.020;5.670;2023-04-06T05:45:44;101414.59;;;11.38;50.62
69624;BME280;56843;52.020;5.670;2023-04-06T05:47:15;101414.28;;;11.39;50.91
69624;BME280;56843;52.020;5.670;2023-04-06T05:48:47;101416.97;;;11.39;50.73
69624;BME280;56843;52.020;5.670;2023-04-06T05:50:18;101418.22;;;11.42;50.62
69624;BME280;56843;52.020;5.670;2023-04-06T05:51:49;101410.97;;;11.42;50.63
69624;BME280;56843;52.020;5.670;2023-04-06T05:53:19;101414.44;;;11.43;50.59
69624;BME280;56843;52.020;5.670;2023-04-06T05:54:56;101410.69;;;11.44;50.43
69624;BME280;56843;52.020;5.670;2023-04-06T05:56:28;101408.00;;;11.44;50.63
69624;BME280;56843;52.020;5.670;2023-04-06T05:58:00;101417.59;;;11.45;50.43
69624;BME280;56843;52.020;5.670;2023-04-06T05:59:31;101411.44;;;11.44;50.11
69624;BME280;56843;52.020;5.670;2023-04-06T06:01:02;101413.81;;;11.46;50.43
69624;BME280;56843;52.020;5.670;2023-04-06T06:02:41;101415.72;;;11.45;50.38
69624;BME280;56843;52.020;5.670;2023-04-06T06:04:15;101418.06;;;11.47;50.32
69624;BME280;56843;52.020;5.670;2023-04-06T06:05:46;101408.16;;;11.47;50.37
69624;BME280;56843;52.020;5.670;2023-04-06T06:07:23;101418.53;;;11.49;49.89
69624;BME280;56843;52.020;5.670;2023-04-06T06:09:03;101414.78;;;11.50;50.09
69624;BME280;56843;52.020;5.670;2023-04-06T06:10:38;101412.88;;;11.50;49.93
69624;BME280;56843;52.020;5.670;2023-04-06T06:12:10;101422.47;;;11.51;50.25
69624;BME280;56843;52.020;5.670;2023-04-06T06:13:41;101412.56;;;11.52;49.79
69624;BME280;56843;52.020;5.670;2023-04-06T06:15:12;101402.66;;;11.52;49.62
69624;BME280;56843;52.020;5.670;2023-04-06T06:16:47;101410.38;;;11.54;49.52
69624;BME280;56843;52.020;5.670;2023-04-06T06:18:19;101405.81;;;11.54;49.90
69624;BME280;56843;52.020;5.670;2023-04-06T06:19:52;101413.53;;;11.56;49.88
69624;BME280;56843;52.020;5.670;2023-04-06T06:21:22;101407.41;;;11.55;49.57
69624;BME280;56843;52.020;5.670;2023-04-06T06:22:53;101408.19;;;11.56;49.33
69624;BME280;56843;52.020;5.670;2023-04-06T06:24:26;101401.44;;;11.58;49.54
69624;BME280;56843;52.020;5.670;2023-04-06T06:25:56;101407.72;;;11.62;49.46
69624;BME280;56843;52.020;5.670;2023-04-06T06:27:29;101406.97;;;11.62;49.45
69624;BME280;56843;52.020;5.670;2023-04-06T06:28:59;101409.31;;;11.63;49.17
69624;BME280;56843;52.020;5.670;2023-04-06T06:30:30;101399.53;;;11.59;49.21
69624;BME280;56843;52.020;5.670;2023-04-06T06:32:00;101400.16;;;11.64;49.06
69624;BME280;56843;52.020;5.670;2023-04-06T06:33:31;101406.31;;;11.65;49.32
69624;BME280;56843;52.020;5.670;2023-04-06T06:35:03;101401.75;;;11.65;49.23
69624;BME280;56843;52.020;5.670;2023-04-06T06:36:33;101406.78;;;11.67;49.22
69624;BME280;56843;52.020;5.670;2023-04-06T06:38:06;101413.72;;;11.68;49.19
69624;BME280;56843;52.020;5.670;2023-04-06T06:39:37;101411.84;;;11.68;48.97
69624;BME280;56843;52.020;5.670;2023-04-06T06:41:07;101408.38;;;11.68;48.97
69624;BME280;56843;52.020;5.670;2023-04-06T06:42:40;101413.72;;;11.68;49.10
69624;BME280;56843;52.020;5.670;2023-04-06T06:44:19;101411.84;;;11.68;49.08
69624;BME280;56843;52.020;5.670;2023-04-06T06:45:49;101414.19;;;11.70;49.07
69624;BME280;56843;52.020;5.670;2023-04-06T06:47:20;101413.84;;;11.71;48.78
69624;BME280;56843;52.020;5.670;2023-04-06T06:48:50;101416.25;;;11.73;48.67
69624;BME280;56843;52.020;5.670;2023-04-06T06:50:21;101402.88;;;11.73;48.67
69624;BME280;56843;52.020;5.670;2023-04-06T06:51:51;101404.41;;;11.74;48.90
69624;BME280;56843;52.020;5.670;2023-04-06T06:53:22;101400.66;;;11.75;48.81
69624;BME280;56843;52.020;5.670;2023-04-06T06:54:53;101405.22;;;11.74;48.45
69624;BME280;56843;52.020;5.670;2023-04-06T06:56:23;101396.06;;;11.75;48.67
69624;BME280;56843;52.020;5.670;2023-04-06T06:57:55;101402.22;;;11.76;48.56
69624;BME280;56843;52.020;5.670;2023-04-06T06:59:26;101399.53;;;11.76;48.29
69624;BME280;56843;52.020;5.670;2023-04-06T07:01:00;101402.69;;;11.78;48.17
69624;BME280;56843;52.020;5.670;2023-04-06T07:02:36;101395.78;;;11.77;48.63
69624;BME280;56843;52.020;5.670;2023-04-06T07:04:07;101400.81;;;11.78;48.46
69624;BME280;56843;52.020;5.670;2023-04-06T07:05:45;101398.13;;;11.78;48.25
69624;BME280;56843;52.020;5.670;2023-04-06T07:07:19;101403.47;;;11.78;48.32
69624;BME280;56843;52.020;5.670;2023-04-06T07:08:50;101393.25;;;11.80;48.08
69624;BME280;56843;52.020;5.670;2023-04-06T07:10:21;101396.72;;;11.81;48.46
69624;BME280;56843;52.020;5.670;2023-04-06T07:11:51;101397.50;;;11.82;48.00
69624;BME280;56843;52.020;5.670;2023-04-06T07:13:22;101400.66;;;11.84;48.36
69624;BME280;56843;52.020;5.670;2023-04-06T07:14:55;101400.31;;;11.85;48.34
69624;BME280;56843;52.020;5.670;2023-04-06T07:16:25;101391.97;;;11.87;48.33
69624;BME280;56843;52.020;5.670;2023-04-06T07:17:58;101398.91;;;11.88;48.17
69624;BME280;56843;52.020;5.670;2023-04-06T07:19:30;101399.69;;;11.88;48.12
69624;BME280;56843;52.020;5.670;2023-04-06T07:21:01;101398.28;;;11.91;47.83
69624;BME280;56843;52.020;5.670;2023-04-06T07:22:31;101399.53;;;11.93;48.00
69624;BME280;56843;52.020;5.670;2023-04-06T07:24:02;101394.66;;;11.95;47.83
69624;BME280;56843;52.020;5.670;2023-04-06T07:25:32;101400.47;;;11.97;47.55
69624;BME280;56843;52.020;5.670;2023-04-06T07:27:03;101402.84;;;11.99;47.83
69624;BME280;56843;52.020;5.670;2023-04-06T07:28:33;101400.16;;;11.99;47.58
69624;BME280;56843;52.020;5.670;2023-04-06T07:30:06;101399.53;;;12.02;47.52
69624;BME280;56843;52.020;5.670;2023-04-06T07:31:36;101400.31;;;12.02;47.35
69624;BME280;56843;52.020;5.670;2023-04-06T07:33:07;101393.38;;;12.01;47.70
69624;BME280;56843;52.020;5.670;2023-04-06T07:34:39;101397.00;;;12.05;47.46
69624;BME280;56843;52.020;5.670;2023-04-06T07:36:10;101402.03;;;12.07;47.71
69624;BME280;56843;52.020;5.670;2023-04-06T07:37:41;101400.94;;;12.08;47.29
69624;BME280;56843;52.020;5.670;2023-04-06T07:39:12;101405.97;;;12.09;47.23
69624;BME280;56843;52.020;5.670;2023-04-06T07:40:43;101393.69;;;12.08;47.23
69624;BME280;56843;52.020;5.670;2023-04-06T07:42:14;101396.84;;;12.10;47.66
69624;BME280;56843;52.020;5.670;2023-04-06T07:43:44;101392.25;;;12.11;47.37
69624;BME280;56843;52.020;5.670;2023-04-06T07:45:15;101386.91;;;12.11;47.52
69624;BME280;56843;52.020;5.670;2023-04-06T07:46:46;101390.38;;;12.11;47.18
69624;BME280;56843;52.020;5.670;2023-04-06T07:48:17;101380.44;;;12.12;47.49
69624;BME280;56843;52.020;5.670;2023-04-06T07:49:48;101378.56;;;12.12;47.34
69624;BME280;56843;52.020;5.670;2023-04-06T07:51:19;101378.56;;;12.12;47.11
69624;BME280;56843;52.020;5.670;2023-04-06T07:52:50;101379.34;;;12.13;47.35
69624;BME280;56843;52.020;5.670;2023-04-06T07:54:21;101385.47;;;12.13;47.33
69624;BME280;56843;52.020;5.670;2023-04-06T07:55:51;101374.78;;;12.13;46.99
69624;BME280;56843;52.020;5.670;2023-04-06T07:57:22;101385.47;;;12.13;47.32
69624;BME280;56843;52.020;5.670;2023-04-06T07:58:52;101380.13;;;12.13;47.20
69624;BME280;56843;52.020;5.670;2023-04-06T08:00:25;101389.28;;;12.12;47.33
69624;BME280;56843;52.020;5.670;2023-04-06T08:01:56;101383.91;;;12.12;46.98
69624;BME280;56843;52.020;5.670;2023-04-06T08:03:26;101390.06;;;12.13;47.26
69624;BME280;56843;52.020;5.670;2023-04-06T08:04:57;101386.28;;;12.14;47.15
69624;BME280;56843;52.020;5.670;2023-04-06T08:06:28;101386.28;;;12.14;47.05